createdAt,value
2018-10-19T00:01:47.414Z,-69
2018-10-19T00:04:21.469Z,-69
2018-10-19T00:06:55.916Z,-69
2018-10-19T00:09:28.825Z,-69
2018-10-19T00:12:03.832Z,-68
2018-10-19T00:14:37.702Z,-69
2018-10-19T00:17:11.831Z,-68
2018-10-19T00:19:46.315Z,-69
2018-10-19T00:22:21.465Z,-69
2018-10-19T00:24:56.048Z,-68
2018-10-19T00:27:30.873Z,-69
2018-10-19T00:30:05.146Z,-69
2018-10-19T00:32:39.758Z,-69
2018-10-19T00:35:13.837Z,-68
2018-10-19T00:37:48.372Z,-69
2018-10-19T00:40:23.467Z,-68
2018-10-19T00:42:57.922Z,-68
2018-10-19T00:45:49.496Z,-68
2018-10-19T00:48:23.794Z,-69
2018-10-19T00:50:57.975Z,-69
2018-10-19T00:53:30.799Z,-68
2018-10-19T00:56:04.909Z,-68
2018-10-19T00:58:37.730Z,-69
2018-10-19T01:01:12.288Z,-68
2018-10-19T01:03:46.799Z,-69
2018-10-19T01:06:21.265Z,-69
2018-10-19T01:08:55.362Z,-69
2018-10-19T01:11:29.636Z,-69
2018-10-19T01:14:04.586Z,-69
2018-10-19T01:16:38.841Z,-69
2018-10-19T01:19:13.300Z,-69
2018-10-19T01:21:47.785Z,-69
2018-10-19T01:24:22.460Z,-68
2018-10-19T01:26:57.015Z,-68
2018-10-19T01:29:32.781Z,-69
2018-10-19T01:32:07.894Z,-69
2018-10-19T01:34:41.383Z,-69
2018-10-19T01:37:16.870Z,-69
2018-10-19T01:39:50.872Z,-68
2018-10-19T01:42:25.988Z,-69
2018-10-19T01:44:59.910Z,-69
2018-10-19T01:47:34.468Z,-69
2018-10-19T01:50:09.578Z,-69
2018-10-19T01:52:44.453Z,-69
2018-10-19T01:55:19.786Z,-69
2018-10-19T01:57:54.797Z,-69
2018-10-19T02:00:30.475Z,-69
2018-10-19T02:03:06.459Z,-68
2018-10-19T02:05:41.332Z,-69
2018-10-19T02:08:15.463Z,-69
2018-10-19T02:10:50.350Z,-70
2018-10-19T02:13:25.878Z,-69
2018-10-19T02:16:00.765Z,-69
2018-10-19T02:18:36.289Z,-69
2018-10-19T02:21:11.511Z,-69
2018-10-19T02:23:47.257Z,-69
2018-10-19T02:26:21.707Z,-69
2018-10-19T02:28:55.472Z,-68
2018-10-19T02:31:30.760Z,-69
2018-10-19T02:34:05.278Z,-69
2018-10-19T02:36:39.626Z,-69
2018-10-19T02:39:14.538Z,-69
2018-10-19T02:41:48.745Z,-69
2018-10-19T02:44:22.916Z,-69
2018-10-19T02:46:55.857Z,-68
2018-10-19T02:49:30.439Z,-68
2018-10-19T02:52:04.311Z,-69
2018-10-19T02:54:38.819Z,-69
2018-10-19T02:57:13.035Z,-69
2018-10-19T02:59:47.782Z,-69
2018-10-19T03:02:20.815Z,-69
2018-10-19T03:04:56.472Z,-69
2018-10-19T03:07:30.652Z,-68
2018-10-19T03:10:04.460Z,-68
2018-10-19T03:12:39.091Z,-69
2018-10-19T03:15:12.928Z,-68
2018-10-19T03:17:46.304Z,-69
2018-10-19T03:20:21.711Z,-69
2018-10-19T03:22:55.925Z,-68
2018-10-19T03:25:29.511Z,-69
2018-10-19T03:28:03.731Z,-69
2018-10-19T03:30:38.439Z,-69
2018-10-19T03:33:12.729Z,-69
2018-10-19T03:35:47.244Z,-69
2018-10-19T03:38:22.689Z,-69
2018-10-19T03:40:57.264Z,-69
2018-10-19T03:43:31.350Z,-69
2018-10-19T03:46:05.917Z,-69
2018-10-19T03:48:38.837Z,-69
2018-10-19T03:51:13.885Z,-69
2018-10-19T03:53:48.438Z,-70
2018-10-19T03:56:22.278Z,-68
2018-10-19T03:58:56.931Z,-69
2018-10-19T04:01:31.287Z,-69
2018-10-19T04:04:06.460Z,-69
2018-10-19T04:06:40.788Z,-69
2018-10-19T04:09:15.961Z,-70
2018-10-19T04:11:49.360Z,-69
2018-10-19T04:14:25.771Z,-69
2018-10-19T04:16:59.566Z,-69
2018-10-19T04:19:34.344Z,-70
2018-10-19T04:22:09.125Z,-69
2018-10-19T04:24:43.339Z,-69
2018-10-19T04:27:17.691Z,-69
2018-10-19T04:29:52.611Z,-69
2018-10-19T04:32:26.783Z,-69
2018-10-19T04:37:35.609Z,-70
2018-10-19T04:40:25.260Z,-69
2018-10-19T04:42:59.780Z,-70
2018-10-19T04:45:34.469Z,-70
2018-10-19T04:48:08.899Z,-69
2018-10-19T04:50:42.244Z,-70
2018-10-19T04:53:16.068Z,-70
2018-10-19T04:55:50.312Z,-70
2018-10-19T04:58:25.244Z,-69
2018-10-19T05:01:00.459Z,-70
2018-10-19T05:03:35.780Z,-70
2018-10-19T05:06:10.413Z,-69
2018-10-19T05:08:44.760Z,-70
2018-10-19T05:11:18.901Z,-70
2018-10-19T05:13:53.329Z,-70
2018-10-19T05:16:27.652Z,-70
2018-10-19T05:19:02.519Z,-70
2018-10-19T05:21:42.581Z,-70
2018-10-19T05:24:17.456Z,-70
2018-10-19T05:26:52.255Z,-69
2018-10-19T05:29:26.103Z,-69
2018-10-19T05:32:01.156Z,-69
2018-10-19T05:34:35.279Z,-70
2018-10-19T05:37:09.468Z,-69
2018-10-19T05:39:44.329Z,-69
2018-10-19T05:42:18.777Z,-70
2018-10-19T05:44:53.688Z,-69
2018-10-19T05:47:28.241Z,-69
2018-10-19T05:50:02.439Z,-69
2018-10-19T05:52:37.816Z,-68
2018-10-19T05:55:12.789Z,-70
2018-10-19T05:57:47.399Z,-70
2018-10-19T06:00:21.686Z,-70
2018-10-19T06:02:56.785Z,-71
2018-10-19T06:05:32.324Z,-71
2018-10-19T06:08:06.888Z,-71
2018-10-19T06:10:40.816Z,-71
2018-10-19T06:13:14.254Z,-70
2018-10-19T06:15:48.375Z,-70
2018-10-19T06:18:22.923Z,-69
2018-10-19T06:20:58.304Z,-69
2018-10-19T06:23:32.741Z,-69
2018-10-19T06:26:07.212Z,-69
2018-10-19T06:28:41.474Z,-70
2018-10-19T06:31:15.796Z,-69
2018-10-19T06:33:50.557Z,-69
2018-10-19T06:36:25.291Z,-70
2018-10-19T06:38:59.796Z,-70
2018-10-19T06:41:33.378Z,-70
2018-10-19T06:44:07.589Z,-70
2018-10-19T06:46:41.326Z,-71
2018-10-19T06:49:15.791Z,-71
2018-10-19T06:51:49.927Z,-70
2018-10-19T06:54:22.642Z,-70
2018-10-19T06:56:56.648Z,-70
2018-10-19T06:59:31.751Z,-71
2018-10-19T07:02:06.532Z,-69
2018-10-19T07:04:40.889Z,-70
2018-10-19T07:07:14.845Z,-69
2018-10-19T07:09:49.341Z,-70
2018-10-19T07:12:23.332Z,-69
2018-10-19T07:14:57.914Z,-70
2018-10-19T07:17:31.698Z,-70
2018-10-19T07:20:06.039Z,-70
2018-10-19T07:22:40.098Z,-70
2018-10-19T07:25:14.494Z,-70
2018-10-19T07:27:48.305Z,-70
2018-10-19T07:30:23.672Z,-70
2018-10-19T07:32:58.308Z,-70
2018-10-19T07:35:32.650Z,-70
2018-10-19T07:38:07.776Z,-70
2018-10-19T07:40:42.130Z,-71
2018-10-19T07:43:16.273Z,-71
2018-10-19T07:45:50.874Z,-69
2018-10-19T07:48:24.918Z,-69
2018-10-19T07:50:58.384Z,-69
2018-10-19T07:53:33.733Z,-68
2018-10-19T07:56:08.489Z,-69
2018-10-19T07:58:42.772Z,-69
2018-10-19T08:01:16.682Z,-69
2018-10-19T08:03:51.656Z,-69
2018-10-19T08:06:25.790Z,-69
2018-10-19T08:09:00.475Z,-69
2018-10-19T08:11:34.661Z,-69
2018-10-19T08:14:09.318Z,-69
2018-10-19T08:16:43.259Z,-69
2018-10-19T08:19:17.485Z,-69
2018-10-19T08:21:51.670Z,-69
2018-10-19T08:24:25.801Z,-69
2018-10-19T08:27:00.097Z,-69
2018-10-19T08:29:34.260Z,-69
2018-10-19T08:32:10.345Z,-69
2018-10-19T08:34:44.816Z,-69
2018-10-19T08:37:19.792Z,-70
2018-10-19T08:39:53.943Z,-69
2018-10-19T08:42:26.553Z,-70
2018-10-19T08:45:01.811Z,-70
2018-10-19T08:47:36.493Z,-70
2018-10-19T08:50:11.331Z,-70
2018-10-19T08:52:45.733Z,-70
2018-10-19T08:55:19.718Z,-71
2018-10-19T08:57:54.385Z,-70
2018-10-19T09:00:28.394Z,-69
2018-10-19T09:03:03.685Z,-70
2018-10-19T09:05:38.893Z,-70
2018-10-19T09:08:12.643Z,-70
2018-10-19T09:10:47.502Z,-70
2018-10-19T09:13:21.799Z,-70
2018-10-19T09:15:55.095Z,-70
2018-10-19T09:18:28.438Z,-70
2018-10-19T09:21:03.844Z,-70
2018-10-19T09:23:37.869Z,-70
2018-10-19T09:26:12.469Z,-70
2018-10-19T09:28:46.248Z,-70
2018-10-19T09:31:21.259Z,-69
2018-10-19T09:33:55.354Z,-69
2018-10-19T09:39:03.502Z,-70
2018-10-19T09:41:37.731Z,-70
2018-10-19T09:44:11.475Z,-70
2018-10-19T09:46:45.659Z,-70
2018-10-19T09:49:20.377Z,-69
2018-10-19T09:51:54.304Z,-73
2018-10-19T09:54:28.729Z,-70
2018-10-19T09:57:03.172Z,-69
2018-10-19T09:59:37.342Z,-70
2018-10-19T10:02:11.735Z,-69
2018-10-19T10:05:23.515Z,-71
2018-10-19T10:12:41.784Z,-70
2018-10-19T10:15:53.014Z,-71
2018-10-19T10:18:44.363Z,-72
2018-10-19T10:21:37.779Z,-71
2018-10-19T10:24:30.757Z,-72
2018-10-19T10:27:23.476Z,-71
2018-10-19T10:42:37.073Z,-71
2018-10-19T10:45:29.826Z,-70
2018-10-19T10:48:22.864Z,-71
2018-10-19T10:51:16.263Z,-71
2018-10-19T10:54:08.911Z,-72
2018-10-19T10:57:00.394Z,-71
2018-10-19T10:59:53.262Z,-72
2018-10-19T11:02:45.700Z,-73
2018-10-19T11:05:38.464Z,-74
2018-10-19T11:08:31.475Z,-73
2018-10-19T11:14:12.150Z,-71
2018-10-19T11:19:59.825Z,-69
2018-10-19T11:22:53.313Z,-71
2018-10-19T11:25:46.369Z,-69
2018-10-19T11:28:38.756Z,-69
2018-10-19T11:31:32.473Z,-70
2018-10-19T11:34:25.841Z,-70
2018-10-19T11:36:59.871Z,-70
2018-10-19T11:43:32.790Z,-68
2018-10-19T11:46:07.474Z,-70
2018-10-19T11:52:35.843Z,-69
2018-10-19T11:55:28.681Z,-69
2018-10-19T11:58:21.604Z,-70
2018-10-19T12:01:15.323Z,-70
2018-10-19T12:04:08.184Z,-70
2018-10-19T12:07:00.734Z,-68
2018-10-19T12:12:49.893Z,-70
2018-10-19T12:15:41.756Z,-69
2018-10-19T12:18:35.281Z,-69
2018-10-19T12:21:27.732Z,-69
2018-10-19T12:24:20.376Z,-69
2018-10-19T12:27:14.332Z,-69
2018-10-19T12:30:07.592Z,-69
2018-10-19T12:44:03.634Z,-68
2018-10-19T12:47:38.793Z,-69
2018-10-19T12:50:34.481Z,-69
2018-10-19T16:27:29.773Z,-67
2018-10-19T16:30:22.638Z,-70
2018-10-19T16:35:53.715Z,-70
2018-10-19T16:38:45.878Z,-71
2018-10-19T16:41:38.466Z,-70
2018-10-19T16:44:31.267Z,-70
2018-10-19T16:47:23.743Z,-70
2018-10-19T16:50:17.245Z,-72
2018-10-19T16:56:26.753Z,-72
2018-10-19T16:59:19.468Z,-71
2018-10-19T17:02:12.559Z,-72
2018-10-19T17:05:05.766Z,-71
2018-10-19T17:07:39.695Z,-72
2018-10-19T17:13:29.870Z,-73
2018-10-19T17:16:22.479Z,-70
2018-10-19T17:19:15.825Z,-70
2018-10-19T17:22:09.242Z,-71
2018-10-19T17:25:01.821Z,-70
2018-10-19T17:27:54.463Z,-70
2018-10-19T17:30:47.262Z,-70
2018-10-19T17:33:21.124Z,-69
2018-10-19T17:36:13.726Z,-70
2018-10-19T17:39:08.538Z,-69
2018-10-19T17:41:53.840Z,-70
2018-10-19T17:44:46.462Z,-69
2018-10-19T17:47:38.907Z,-69
2018-10-19T17:50:31.454Z,-70
2018-10-19T17:53:24.277Z,-69
2018-10-19T17:56:16.847Z,-69
2018-10-19T17:59:09.925Z,-69
2018-10-19T18:02:01.645Z,-70
2018-10-19T18:04:54.299Z,-69
2018-10-19T18:07:47.860Z,-70
2018-10-19T18:10:40.568Z,-70
2018-10-19T18:22:39.817Z,-73
2018-10-19T18:25:32.668Z,-72
2018-10-19T18:28:25.377Z,-73
2018-10-19T18:31:18.251Z,-73
2018-10-19T18:34:11.583Z,-73
2018-10-19T18:37:03.851Z,-74
2018-10-19T18:39:56.374Z,-73
2018-10-19T18:42:30.375Z,-73
2018-10-19T18:45:03.880Z,-75
2018-10-19T18:47:37.379Z,-73
2018-10-19T18:53:28.266Z,-74
2018-10-19T18:56:20.836Z,-74
2018-10-19T18:59:13.711Z,-74
2018-10-19T19:02:05.877Z,-73
2018-10-19T19:04:59.358Z,-75
2018-10-19T19:07:52.299Z,-73
2018-10-19T19:10:46.245Z,-73
2018-10-19T19:13:57.516Z,-73
2018-10-19T19:16:50.456Z,-73
2018-10-19T19:19:43.276Z,-72
2018-10-19T19:22:35.726Z,-73
2018-10-19T19:25:46.423Z,-73
2018-10-19T19:28:39.279Z,-74
2018-10-19T19:31:32.792Z,-73
2018-10-19T19:34:24.116Z,-72
2018-10-19T19:36:58.321Z,-73
2018-10-19T19:42:58.676Z,-72
2018-10-19T19:45:50.862Z,-73
2018-10-19T20:03:54.794Z,-70
2018-10-19T20:06:48.710Z,-73
2018-10-19T20:09:41.252Z,-73
2018-10-19T20:12:33.913Z,-74
2018-10-19T20:15:25.683Z,-71
2018-10-19T20:18:18.544Z,-74
2018-10-19T20:20:52.279Z,-73
2018-10-19T20:23:44.900Z,-73
2018-10-19T20:26:36.707Z,-74
2018-10-19T20:29:29.259Z,-74
2018-10-19T20:32:22.000Z,-73
2018-10-19T20:35:14.641Z,-73
2018-10-19T20:38:07.752Z,-73
2018-10-19T20:43:46.593Z,-73
2018-10-19T20:47:09.826Z,-72
2018-10-19T20:49:50.633Z,-73
2018-10-19T20:52:43.410Z,-72
2018-10-19T21:02:49.459Z,-72
2018-10-19T21:06:18.315Z,-73
2018-10-19T21:09:13.437Z,-73
2018-10-19T21:12:06.269Z,-72
2018-10-19T21:22:40.403Z,-73
2018-10-19T21:27:22.464Z,-73
2018-10-19T21:30:15.465Z,-72
2018-10-19T21:33:08.465Z,-71
2018-10-19T21:36:01.782Z,-73
2018-10-19T21:38:54.785Z,-72
2018-10-19T21:41:48.606Z,-72
2018-10-19T21:48:04.639Z,-73
2018-10-19T21:51:09.743Z,-73
2018-10-19T21:53:50.788Z,-73
2018-10-19T21:56:43.871Z,-72
2018-10-19T21:59:37.816Z,-71
2018-10-19T22:02:31.340Z,-72
2018-10-19T22:05:05.825Z,-68
2018-10-19T22:07:40.655Z,-68
2018-10-19T22:10:14.834Z,-68
2018-10-19T22:12:49.248Z,-68
2018-10-19T22:18:08.740Z,-68
2018-10-19T22:20:43.681Z,-68
2018-10-19T22:23:17.714Z,-68
2018-10-19T22:25:51.776Z,-69
2018-10-19T22:28:25.677Z,-69
2018-10-19T22:30:59.676Z,-69
2018-10-19T22:33:33.886Z,-68
2018-10-19T22:36:07.386Z,-68
2018-10-19T22:38:41.832Z,-68
2018-10-19T22:41:16.332Z,-68
2018-10-19T22:43:49.823Z,-68
2018-10-19T22:46:23.630Z,-69
2018-10-19T22:48:57.622Z,-69
2018-10-19T22:51:31.285Z,-69
2018-10-19T22:54:05.362Z,-69
2018-10-19T22:56:39.474Z,-68
2018-10-19T22:59:13.343Z,-68
2018-10-19T23:01:47.279Z,-68
2018-10-19T23:04:21.827Z,-68
2018-10-19T23:06:57.633Z,-69
2018-10-19T23:09:31.301Z,-69
2018-10-19T23:12:05.413Z,-69
2018-10-19T23:14:40.263Z,-69
2018-10-19T23:17:14.674Z,-68
2018-10-19T23:19:49.002Z,-68
2018-10-19T23:22:23.432Z,-69
2018-10-19T23:24:57.264Z,-69
2018-10-19T23:27:31.781Z,-68
2018-10-19T23:30:06.292Z,-69
2018-10-19T23:32:40.123Z,-68
2018-10-19T23:35:14.362Z,-68
2018-10-19T23:37:48.361Z,-68
2018-10-19T23:40:23.684Z,-68
2018-10-19T23:42:58.476Z,-69
2018-10-19T23:45:32.294Z,-68
2018-10-19T23:48:07.598Z,-68
2018-10-19T23:50:41.879Z,-68
2018-10-19T23:53:15.270Z,-69
2018-10-19T23:55:49.807Z,-68
2018-10-19T23:58:24.754Z,-69
